Time;durP1;ratioP1;P1;durP2;ratioP2;P2;SDS_P1;SDS_P2;PMS_P1;PMS_P2;Temp;Humidity;BMP_temperature;BMP_pressure;BME280_temperature;BME280_humidity;BME280_pressure;Samples;Min_cycle;Max_cycle;Signal;HPM_P1;HPM_P2
2023/12/12 00:01:04;;;;;;;1.00;1.00;;;;;;;3.77;100.00;99975.97;5074528;28;20280;-77
2023/12/12 00:03:30;;;;;;;0.70;0.70;;;;;;;3.75;100.00;99975.88;5073637;28;20209;-77
2023/12/12 00:05:58;;;;;;;0.70;0.70;;;;;;;3.82;100.00;99954.81;5110579;28;20197;-78
2023/12/12 00:08:25;;;;;;;1.27;1.27;;;;;;;3.81;100.00;99962.47;5110508;28;20204;-77
2023/12/12 00:10:51;;;;;;;1.87;1.87;;;;;;;3.91;100.00;99965.44;5110870;28;20197;-77
2023/12/12 00:13:18;;;;;;;1.83;1.73;;;;;;;4.01;100.00;99974.38;5073931;28;20270;-77
2023/12/12 00:15:45;;;;;;;1.10;1.10;;;;;;;4.06;100.00;99978.00;5110435;28;20204;-78
2023/12/12 00:18:11;;;;;;;1.27;1.27;;;;;;;4.01;100.00;99982.06;5110712;28;20695;-77
2023/12/12 00:20:38;;;;;;;0.90;0.90;;;;;;;3.89;100.00;99981.56;5111313;28;20194;-77
2023/12/12 00:23:06;;;;;;;0.80;0.80;;;;;;;3.99;100.00;99983.69;5114019;28;20296;-77
2023/12/12 00:25:33;;;;;;;1.10;1.10;;;;;;;3.81;100.00;99978.72;5114235;28;20637;-77
2023/12/12 00:28:00;;;;;;;0.93;0.93;;;;;;;3.64;100.00;99973.72;5114011;28;20626;-77
2023/12/12 00:30:26;;;;;;;2.13;2.03;;;;;;;3.60;100.00;99966.72;5113939;28;20232;-76
2023/12/12 00:32:53;;;;;;;2.00;2.00;;;;;;;3.69;100.00;99980.78;5114333;28;20202;-77
2023/12/12 00:35:20;;;;;;;2.47;2.37;;;;;;;3.70;100.00;99968.84;5114683;28;20220;-76
2023/12/12 00:37:47;;;;;;;2.33;1.73;;;;;;;3.70;100.00;99968.84;5114135;28;20201;-77
2023/12/12 00:40:15;;;;;;;1.20;1.20;;;;;;;3.74;100.00;99966.47;5114242;28;20214;-76
2023/12/12 00:42:42;;;;;;;2.40;2.17;;;;;;;3.78;100.00;99962.34;5114021;27;20217;-77
2023/12/12 00:45:09;;;;;;;0.87;0.87;;;;;;;3.76;100.00;99963.94;5114139;28;20232;-76
2023/12/12 00:47:35;;;;;;;1.40;1.40;;;;;;;3.72;100.00;99969.75;5114450;28;20197;-76
2023/12/12 00:50:02;;;;;;;1.20;1.20;;;;;;;3.76;100.00;99963.94;5114110;28;20225;-77
2023/12/12 00:52:29;;;;;;;1.90;1.90;;;;;;;3.68;100.00;99975.56;5113851;28;20316;-77
2023/12/12 00:54:58;;;;;;;1.30;1.30;;;;;;;3.50;100.00;99942.38;5118091;27;20296;-77
2023/12/12 00:57:27;;;;;;;1.13;1.13;;;;;;;3.65;100.00;99970.34;5122034;27;20210;-76
2023/12/12 00:59:54;;;;;;;2.43;2.33;;;;;;;3.72;100.00;99974.91;5077507;28;20193;-76
2023/12/12 01:02:23;;;;;;;1.70;1.70;;;;;;;3.48;100.00;99931.22;5113345;28;20202;-76
2023/12/12 01:04:50;;;;;;;0.90;0.90;;;;;;;3.64;100.00;99984.84;5113486;28;20202;-76
2023/12/12 01:07:17;;;;;;;2.47;2.30;;;;;;;3.77;100.00;100015.31;5113135;28;20213;-76
2023/12/12 01:09:44;;;;;;;2.03;1.97;;;;;;;3.92;100.00;99999.66;5112855;28;20217;-76
2023/12/12 01:12:11;;;;;;;2.77;1.93;;;;;;;3.84;100.00;99952.31;5060372;28;20548;-76
2023/12/12 01:14:39;;;;;;;2.60;2.50;;;;;;;4.21;100.00;100001.66;5077090;28;20197;-76
2023/12/12 01:34:07;;;;;;;3.60;1.87;;;;;;;4.48;100.00;99989.00;5127443;27;21106;-77
2023/12/12 01:36:34;;;;;;;1.57;1.57;;;;;;;4.40;100.00;100004.13;5112431;28;20204;-77
2023/12/12 01:39:00;;;;;;;1.30;1.27;;;;;;;4.41;100.00;100013.56;5110195;28;20189;-77
2023/12/12 01:41:27;;;;;;;1.33;1.20;;;;;;;4.31;100.00;100024.31;5108387;28;20196;-77
2023/12/12 01:43:54;;;;;;;1.10;1.03;;;;;;;3.96;100.00;100042.53;5124386;27;20209;-76
2023/12/12 01:46:22;;;;;;;1.00;1.00;;;;;;;3.71;100.00;100057.78;5127314;27;20667;-76
2023/12/12 01:48:49;;;;;;;1.37;1.27;;;;;;;3.44;100.00;100067.72;5128029;27;20205;-76
2023/12/12 01:51:17;;;;;;;2.37;1.63;;;;;;;3.38;100.00;100018.78;5114874;28;20225;-76
2023/12/12 01:53:47;;;;;;;1.43;1.43;;;;;;;3.53;100.00;100054.44;5113091;28;20201;-76
2023/12/12 01:56:15;;;;;;;1.93;1.93;;;;;;;3.37;100.00;100078.53;5109972;28;20226;-76
2023/12/12 01:58:45;;;;;;;1.37;1.37;;;;;;;3.52;100.00;100040.72;5116730;28;20577;-76
2023/12/12 02:01:12;;;;;;;1.30;1.30;;;;;;;3.17;100.00;100035.81;5121821;28;20729;-77
2023/12/12 02:03:41;;;;;;;0.60;0.60;;;;;;;3.49;100.00;100041.50;5106868;28;20232;-76
2023/12/12 02:06:10;;;;;;;0.80;0.80;;;;;;;3.46;100.00;100040.50;5112467;28;20593;-77
2023/12/12 02:08:39;;;;;;;0.90;0.90;;;;;;;3.46;100.00;99990.09;5127015;27;20201;-76
2023/12/12 02:11:06;;;;;;;2.70;1.90;;;;;;;3.62;100.00;99998.41;5088154;28;20626;-77
2023/12/12 02:13:33;;;;;;;1.63;1.63;;;;;;;3.60;100.00;100021.44;5054554;28;20202;-76
2023/12/12 02:15:59;;;;;;;1.27;1.27;;;;;;;3.74;100.00;100001.47;5118806;28;20530;-76
2023/12/12 02:18:26;;;;;;;0.70;0.70;;;;;;;3.90;100.00;100014.09;5107148;28;20608;-76
2023/12/12 02:20:53;;;;;;;1.10;1.10;;;;;;;3.95;100.00;100015.16;5107612;28;20633;-76
2023/12/12 02:23:21;;;;;;;3.30;1.97;;;;;;;4.14;100.00;100020.19;5110094;27;20738;-76
2023/12/12 02:25:48;;;;;;;4.00;1.93;;;;;;;3.99;100.00;99974.28;5124094;27;20200;-76
2023/12/12 02:28:15;;;;;;;0.80;0.80;;;;;;;3.97;100.00;99978.50;5107716;28;20201;-77
2023/12/12 02:30:42;;;;;;;1.50;1.40;;;;;;;3.97;100.00;99955.41;5115492;28;20700;-77
2023/12/12 02:33:09;;;;;;;2.07;1.80;;;;;;;3.84;100.00;99967.69;5065148;28;20223;-77
2023/12/12 02:35:36;;;;;;;0.90;0.90;;;;;;;3.57;100.00;99944.38;5071258;28;20210;-77
2023/12/12 02:38:02;;;;;;;1.13;1.13;;;;;;;3.67;100.00;99941.41;5052908;28;20215;-77
2023/12/12 02:40:30;;;;;;;1.97;1.87;;;;;;;3.69;100.00;99920.94;5064693;28;20187;-78
2023/12/12 02:42:57;;;;;;;1.30;1.30;;;;;;;3.37;100.00;99905.16;5071937;28;20214;-78
2023/12/12 02:45:24;;;;;;;2.90;2.70;;;;;;;3.33;100.00;99898.16;5072297;28;20191;-78
2023/12/12 02:47:51;;;;;;;0.60;0.60;;;;;;;3.35;100.00;99872.63;5072076;28;20202;-78
2023/12/12 02:50:18;;;;;;;3.10;2.90;;;;;;;3.09;100.00;99830.56;5073142;28;20231;-78
2023/12/12 02:52:45;;;;;;;1.30;1.30;;;;;;;3.30;100.00;99877.53;5072359;28;20206;-78
2023/12/12 02:55:12;;;;;;;0.73;0.73;;;;;;;3.02;100.00;99849.06;5071742;28;20208;-78
2023/12/12 02:57:40;;;;;;;2.50;2.30;;;;;;;3.19;100.00;99854.84;5071762;28;20202;-78
2023/12/12 03:00:09;;;;;;;2.37;2.33;;;;;;;3.22;100.00;99866.09;5071778;28;20202;-78
2023/12/12 03:02:35;;;;;;;0.80;0.80;;;;;;;3.42;100.00;99890.81;5071526;28;20225;-78
2023/12/12 03:05:03;;;;;;;0.70;0.70;;;;;;;3.66;100.00;99910.56;5063427;28;20230;-77
2023/12/12 03:07:30;;;;;;;1.00;1.00;;;;;;;3.71;100.00;99894.53;5068229;28;20231;-79
2023/12/12 03:09:57;;;;;;;0.90;0.90;;;;;;;3.80;100.00;99915.44;5048378;28;20212;-78
2023/12/12 03:12:24;;;;;;;1.20;1.20;;;;;;;3.83;100.00;99914.66;5071531;28;20207;-78
2023/12/12 03:14:52;;;;;;;1.63;1.53;;;;;;;3.98;100.00;99925.50;5071805;28;20199;-78
2023/12/12 03:17:19;;;;;;;1.00;1.00;;;;;;;3.98;100.00;99921.25;5071950;28;20194;-78
2023/12/12 03:19:44;;;;;;;3.00;1.47;;;;;;;3.94;100.00;99932.22;5071555;28;20199;-77
2023/12/12 03:22:11;;;;;;;0.90;0.90;;;;;;;3.89;100.00;99932.84;5071568;28;20296;-78
2023/12/12 03:24:38;;;;;;;1.03;1.03;;;;;;;3.76;100.00;99928.94;5071612;28;20225;-77
2023/12/12 03:27:06;;;;;;;2.13;1.97;;;;;;;3.83;100.00;99923.22;5071091;28;20234;-77
2023/12/12 03:29:33;;;;;;;1.10;1.10;;;;;;;3.90;100.00;99932.03;5071671;28;20296;-77
2023/12/12 03:32:01;;;;;;;2.03;2.00;;;;;;;3.75;100.00;99916.03;5077060;28;20388;-78
2023/12/12 03:34:27;;;;;;;1.70;1.63;;;;;;;3.91;100.00;99919.28;5109921;28;20189;-78
2023/12/12 03:36:54;;;;;;;1.43;1.43;;;;;;;4.16;100.00;99951.88;5112076;28;20636;-77
2023/12/12 03:39:21;;;;;;;0.80;0.80;;;;;;;4.31;100.00;99951.56;5111836;28;20583;-77
2023/12/12 03:41:48;;;;;;;0.83;0.83;;;;;;;4.39;100.00;99945.91;5111394;28;20241;-77
2023/12/12 03:44:15;;;;;;;2.63;2.27;;;;;;;4.15;100.00;99944.97;5104522;28;20217;-77
2023/12/12 03:46:42;;;;;;;1.20;1.20;;;;;;;4.23;100.00;99945.28;5110306;28;20755;-78
2023/12/12 03:49:10;;;;;;;1.27;1.27;;;;;;;4.30;100.00;99942.13;5111570;28;20660;-78
2023/12/12 03:51:36;;;;;;;1.30;1.30;;;;;;;4.23;100.00;99930.75;5075558;28;20220;-77
2023/12/12 03:54:03;;;;;;;2.40;1.93;;;;;;;4.46;100.00;99955.56;5042501;28;20198;-78
2023/12/12 03:56:30;;;;;;;0.90;0.90;;;;;;;4.54;100.00;99962.69;5111479;28;20663;-78
2023/12/12 03:58:59;;;;;;;0.80;0.80;;;;;;;4.63;100.00;99963.03;5096150;28;20198;-77
2023/12/12 04:01:26;;;;;;;1.10;1.10;;;;;;;4.70;100.00;99967.56;5108651;28;20197;-78
2023/12/12 04:03:55;;;;;;;0.97;0.97;;;;;;;4.73;100.00;99962.53;5108561;28;20727;-78
2023/12/12 04:06:23;;;;;;;1.63;1.57;;;;;;;4.69;100.00;99964.13;5036608;28;20194;-78
2023/12/12 04:08:50;;;;;;;1.33;1.23;;;;;;;4.64;100.00;99946.81;5081926;28;20213;-77
2023/12/12 04:11:17;;;;;;;1.33;1.33;;;;;;;4.78;100.00;99979.84;5091153;28;20202;-77
2023/12/12 04:13:44;;;;;;;1.40;1.40;;;;;;;4.31;100.00;99905.38;5091745;28;20205;-77
2023/12/12 04:16:10;;;;;;;1.30;1.30;;;;;;;4.64;100.00;99949.38;5098490;28;20201;-77
2023/12/12 04:18:37;;;;;;;0.90;0.90;;;;;;;4.71;100.00;99969.34;5111003;28;20199;-77
2023/12/12 04:21:05;;;;;;;1.97;1.93;;;;;;;4.60;100.00;99986.03;5084673;28;20209;-77
2023/12/12 04:23:35;;;;;;;0.87;0.87;;;;;;;4.57;100.00;99988.47;5070910;28;20233;-77
2023/12/12 04:26:02;;;;;;;0.90;0.90;;;;;;;4.57;100.00;99975.63;5092123;28;20282;-77
2023/12/12 04:28:28;;;;;;;0.90;0.90;;;;;;;4.61;100.00;99980.06;5057983;28;20198;-77
2023/12/12 04:30:54;;;;;;;1.00;1.00;;;;;;;4.56;100.00;99958.50;5050797;28;20202;-78
2023/12/12 04:33:21;;;;;;;0.80;0.80;;;;;;;4.76;100.00;99993.47;5090542;28;20291;-78
2023/12/12 04:35:48;;;;;;;1.57;1.57;;;;;;;4.61;100.00;99959.53;5098491;28;20201;-77
2023/12/12 04:38:14;;;;;;;2.10;1.67;;;;;;;4.79;100.00;99989.31;5090847;28;20194;-78
2023/12/12 04:40:43;;;;;;;1.00;1.00;;;;;;;4.76;100.00;99984.06;5092606;28;20202;-77
2023/12/12 04:43:10;;;;;;;4.73;1.67;;;;;;;4.62;100.00;99979.25;5100755;28;20232;-77
2023/12/12 04:45:36;;;;;;;1.97;1.97;;;;;;;4.45;100.00;99964.13;5061744;28;20227;-80
2023/12/12 04:48:04;;;;;;;1.67;1.67;;;;;;;4.63;100.00;99986.13;5092009;28;20197;-79
2023/12/12 04:50:30;;;;;;;0.93;0.93;;;;;;;4.49;100.00;99983.91;5092149;28;20198;-78
2023/12/12 04:52:56;;;;;;;1.03;1.03;;;;;;;4.36;100.00;99991.97;5090864;28;20282;-77
2023/12/12 04:55:23;;;;;;;2.73;2.57;;;;;;;4.25;100.00;99956.47;5063176;28;20662;-77
2023/12/12 04:57:51;;;;;;;2.90;2.70;;;;;;;4.57;100.00;99988.47;5090490;28;20202;-77
2023/12/12 05:00:18;;;;;;;0.90;0.90;;;;;;;4.31;100.00;99983.25;5091951;28;20608;-76
2023/12/12 05:02:45;;;;;;;1.43;1.43;;;;;;;4.43;100.00;99993.97;5054533;28;20229;-77
2023/12/12 05:05:12;;;;;;;0.90;0.90;;;;;;;4.56;100.00;99995.31;5094833;28;20229;-77
2023/12/12 05:07:39;;;;;;;4.63;1.33;;;;;;;4.55;100.00;99987.53;5110423;28;20193;-75
2023/12/12 05:10:07;;;;;;;0.90;0.90;;;;;;;4.47;100.00;99965.03;5107261;28;20199;-76
2023/12/12 05:12:33;;;;;;;0.80;0.80;;;;;;;4.49;100.00;99977.94;5090443;28;20224;-78
2023/12/12 05:15:02;;;;;;;1.07;1.07;;;;;;;4.65;100.00;100005.03;5095707;28;20625;-78
2023/12/12 05:17:28;;;;;;;1.00;1.00;;;;;;;4.66;100.00;100006.78;5110850;28;20197;-76
2023/12/12 05:19:55;;;;;;;1.07;1.07;;;;;;;4.30;100.00;99937.00;5100713;28;20212;-76
2023/12/12 05:22:22;;;;;;;2.00;1.80;;;;;;;4.74;100.00;99997.69;5110276;28;20201;-77
2023/12/12 05:24:49;;;;;;;1.20;1.20;;;;;;;4.75;100.00;99984.88;5110482;28;20311;-77
2023/12/12 05:27:16;;;;;;;1.60;1.60;;;;;;;4.83;100.00;100001.44;5108717;28;20201;-77
2023/12/12 05:29:42;;;;;;;1.87;1.77;;;;;;;4.34;100.00;99947.44;5090736;28;20271;-77
2023/12/12 05:32:10;;;;;;;1.20;1.20;;;;;;;4.76;100.00;100006.31;5093407;28;20236;-78
2023/12/12 05:34:37;;;;;;;0.97;0.97;;;;;;;4.74;100.00;99997.69;5100446;28;20198;-77
2023/12/12 05:37:04;;;;;;;0.80;0.80;;;;;;;4.83;100.00;100004.03;5090553;28;20488;-78
2023/12/12 05:39:31;;;;;;;2.27;2.17;;;;;;;4.66;100.00;99956.31;5093736;28;20209;-77
2023/12/12 05:41:58;;;;;;;1.47;1.47;;;;;;;4.99;100.00;100002.88;5101086;28;20579;-77
2023/12/12 05:44:24;;;;;;;3.50;2.40;;;;;;;5.10;100.00;100006.69;5103823;28;20225;-75
2023/12/12 05:46:51;;;;;;;1.47;1.47;;;;;;;5.00;100.00;100007.19;5110346;28;20205;-73
2023/12/12 05:49:21;;;;;;;1.00;1.00;;;;;;;5.06;100.00;100010.00;5109605;28;20199;-76
2023/12/12 05:51:48;;;;;;;1.10;1.10;;;;;;;5.03;100.00;100004.72;5091982;28;20201;-76
2023/12/12 05:54:15;;;;;;;1.47;1.30;;;;;;;4.91;100.00;100001.72;5099492;28;20202;-83
2023/12/12 05:56:45;;;;;;;1.00;1.00;;;;;;;5.00;100.00;100004.63;5101805;28;20194;-81
2023/12/12 05:59:14;;;;;;;2.57;2.47;;;;;;;5.03;100.00;100007.28;5098797;28;20197;-76
2023/12/12 06:01:41;;;;;;;2.80;2.60;;;;;;;5.01;100.00;100014.09;5110977;28;20684;-79
2023/12/12 06:04:08;;;;;;;1.53;1.53;;;;;;;5.00;100.00;100005.50;5097172;28;20725;-75
2023/12/12 06:06:41;;;;;;;1.93;1.80;;;;;;;5.16;100.00;99991.50;5085100;28;20237;-73
2023/12/12 06:09:09;;;;;;;0.80;0.80;;;;;;;5.07;100.00;99978.31;5084284;28;20194;-76
2023/12/12 06:11:36;;;;;;;0.93;0.93;;;;;;;5.23;100.00;99985.75;5101873;28;20198;-77
2023/12/12 06:14:03;;;;;;;1.07;1.07;;;;;;;5.18;100.00;99960.69;5089315;28;20316;-78
2023/12/12 06:16:30;;;;;;;2.27;1.37;;;;;;;5.37;100.00;99981.06;5089365;28;20221;-77
2023/12/12 06:18:57;;;;;;;1.63;1.43;;;;;;;5.52;100.00;99989.31;5090776;28;20725;-77
2023/12/12 06:21:24;;;;;;;0.83;0.83;;;;;;;5.76;100.00;99976.38;5092710;28;20256;-78
2023/12/12 06:23:52;;;;;;;1.20;1.20;;;;;;;5.92;100.00;99976.94;5092616;28;20234;-77
2023/12/12 06:26:18;;;;;;;1.07;1.07;;;;;;;5.88;100.00;99976.81;5095502;28;20670;-79
2023/12/12 06:28:45;;;;;;;6.80;2.13;;;;;;;5.98;100.00;99973.69;5102376;28;20267;-77
2023/12/12 06:31:11;;;;;;;2.50;2.30;;;;;;;5.92;100.00;99968.38;5085466;28;20214;-77
2023/12/12 06:33:38;;;;;;;2.33;1.90;;;;;;;5.73;100.00;99973.72;5085045;28;20261;-76
2023/12/12 06:36:07;;;;;;;0.90;0.90;;;;;;;5.75;100.00;99993.50;5079486;28;20199;-79
2023/12/12 06:38:34;;;;;;;1.93;1.80;;;;;;;5.44;100.00;99950.50;5100380;28;20598;-79
2023/12/12 06:41:03;;;;;;;1.80;1.80;;;;;;;5.77;100.00;99991.88;5090163;28;20701;-81
2023/12/12 06:43:30;;;;;;;1.33;1.27;;;;;;;5.85;100.00;100002.41;5087213;28;20245;-76
2023/12/12 06:45:57;;;;;;;1.73;1.63;;;;;;;5.77;100.00;100003.84;5058072;28;20195;-78
2023/12/12 06:48:24;;;;;;;1.87;1.83;;;;;;;5.83;100.00;100009.19;5091577;28;20294;-77
2023/12/12 06:50:52;;;;;;;2.47;2.10;;;;;;;5.98;100.00;100004.56;5079538;28;20210;-76
2023/12/12 06:53:19;;;;;;;1.83;1.73;;;;;;;6.30;100.00;99991.00;5080367;28;20646;-78
2023/12/12 06:55:47;;;;;;;2.53;2.43;;;;;;;6.31;100.00;99989.31;5095461;28;20253;-77
2023/12/12 06:58:16;;;;;;;2.13;1.10;;;;;;;6.37;100.00;100000.66;5093962;28;20293;-77
2023/12/12 07:00:43;;;;;;;2.87;1.30;;;;;;;6.49;100.00;100006.16;5085999;28;20211;-77
2023/12/12 07:03:10;;;;;;;1.17;1.17;;;;;;;6.60;100.00;100006.47;5066045;28;20218;-76
2023/12/12 07:05:37;;;;;;;2.40;2.20;;;;;;;6.70;100.00;100018.81;5095268;28;20237;-78
2023/12/12 07:08:05;;;;;;;3.80;1.07;;;;;;;6.69;100.00;99993.00;5095222;28;20228;-78
2023/12/12 07:10:33;;;;;;;1.50;1.27;;;;;;;6.88;100.00;100026.22;5098317;28;20215;-77
2023/12/12 07:13:00;;;;;;;1.93;1.93;;;;;;;7.01;100.00;100030.88;5095142;28;20202;-79
2023/12/12 07:15:29;;;;;;;1.50;1.50;;;;;;;7.15;100.00;100026.97;5093129;28;20222;-76
2023/12/12 07:17:56;;;;;;;1.53;1.53;;;;;;;7.00;100.00;99982.72;5082118;28;20193;-77
2023/12/12 07:20:23;;;;;;;0.80;0.80;;;;;;;7.39;100.00;100024.19;5095477;28;20707;-77
2023/12/12 07:22:50;;;;;;;2.77;2.60;;;;;;;7.55;100.00;100020.31;5093429;28;20201;-77
2023/12/12 07:25:16;;;;;;;2.43;2.33;;;;;;;7.54;100.00;100021.13;5081779;28;20226;-78
2023/12/12 07:27:43;;;;;;;1.40;1.40;;;;;;;7.47;100.00;100005.50;5055045;28;20214;-78
2023/12/12 07:30:11;;;;;;;2.63;1.30;;;;;;;7.35;100.00;100030.97;5094659;28;20289;-79
2023/12/12 07:32:39;;;;;;;1.47;1.47;;;;;;;7.34;100.00;100042.13;5092397;28;20268;-78
2023/12/12 07:35:07;;;;;;;1.17;1.17;;;;;;;7.43;100.00;100044.94;5095612;28;20291;-78
2023/12/12 07:37:34;;;;;;;2.57;2.37;;;;;;;7.43;100.00;100044.06;5097693;28;20210;-78
2023/12/12 07:40:02;;;;;;;2.30;2.10;;;;;;;7.17;100.00;100042.50;5080660;28;20285;-78
2023/12/12 07:42:30;;;;;;;1.73;1.73;;;;;;;6.70;100.00;100036.84;5101003;28;20209;-79
2023/12/12 07:44:57;;;;;;;1.53;1.50;;;;;;;6.72;100.00;100044.63;5100515;28;20232;-78
2023/12/12 07:47:24;;;;;;;9.90;3.87;;;;;;;6.82;100.00;100049.19;5098969;28;20273;-77
2023/12/12 07:49:52;;;;;;;3.40;2.80;;;;;;;7.01;100.00;100048.91;5094834;28;20206;-80
2023/12/12 07:52:19;;;;;;;1.67;1.67;;;;;;;6.99;100.00;100051.44;5080895;28;20209;-77
2023/12/12 07:54:46;;;;;;;1.73;1.63;;;;;;;7.21;100.00;100052.91;5085131;28;20233;-77
2023/12/12 07:57:13;;;;;;;1.53;1.53;;;;;;;7.17;100.00;100051.09;5085404;28;20210;-76
2023/12/12 07:59:40;;;;;;;1.63;1.63;;;;;;;7.10;100.00;100044.00;5087195;28;20203;-78
2023/12/12 08:02:07;;;;;;;1.67;1.53;;;;;;;7.29;100.00;100059.16;5089955;28;20218;-77
2023/12/12 08:04:34;;;;;;;2.10;1.83;;;;;;;7.63;100.00;100042.03;5084766;28;20629;-77
2023/12/12 08:07:02;;;;;;;0.70;0.70;;;;;;;7.83;100.00;100040.81;5088716;28;20194;-76
2023/12/12 08:09:29;;;;;;;1.33;1.33;;;;;;;7.88;100.00;100040.06;5090794;28;20203;-77
2023/12/12 08:11:57;;;;;;;0.77;0.77;;;;;;;7.82;100.00;100024.44;5091288;28;20234;-76
2023/12/12 08:14:24;;;;;;;1.27;1.27;;;;;;;7.99;100.00;99999.91;5079688;28;20210;-76
2023/12/12 08:16:50;;;;;;;4.17;2.40;;;;;;;8.36;100.00;100035.25;5089720;28;20198;-77
2023/12/12 08:19:17;;;;;;;4.03;2.10;;;;;;;8.35;100.00;100038.66;5062381;28;20226;-77
2023/12/12 08:21:44;;;;;;;3.10;2.20;;;;;;;8.34;100.00;100036.94;5107272;28;20202;-77
2023/12/12 08:24:13;;;;;;;3.70;2.50;;;;;;;8.46;100.00;100034.63;5110136;28;20225;-77
2023/12/12 08:26:41;;;;;;;3.27;2.10;;;;;;;8.55;100.00;100035.69;5078609;28;20717;-76
2023/12/12 08:29:08;;;;;;;1.40;1.40;;;;;;;8.19;100.00;99995.22;5076864;28;20235;-77
2023/12/12 08:31:37;;;;;;;3.80;2.17;;;;;;;8.46;100.00;100044.09;5094077;28;20210;-76
2023/12/12 08:34:04;;;;;;;2.17;1.53;;;;;;;8.57;100.00;100039.16;5087038;28;20273;-77
2023/12/12 08:36:30;;;;;;;1.13;1.13;;;;;;;8.44;100.00;100046.66;5094155;28;20199;-76
2023/12/12 08:38:58;;;;;;;1.37;1.37;;;;;;;8.15;100.00;100002.84;5080336;28;20199;-77
2023/12/12 08:41:27;;;;;;;1.63;1.63;;;;;;;8.21;100.00;100028.81;5082196;28;20573;-77
2023/12/12 08:43:55;;;;;;;1.63;1.63;;;;;;;8.41;100.00;100043.13;5100541;28;20785;-77
2023/12/12 08:46:26;;;;;;;1.70;1.60;;;;;;;8.45;100.00;100032.88;5103144;28;20201;-78
2023/12/12 08:48:54;;;;;;;1.00;1.00;;;;;;;8.49;100.00;100035.56;5051660;28;20202;-76
2023/12/12 08:51:21;;;;;;;1.20;1.20;;;;;;;8.26;100.00;100042.72;5097181;28;20282;-76
2023/12/12 08:53:48;;;;;;;2.03;1.93;;;;;;;8.48;100.00;100033.78;5089598;28;20267;-76
2023/12/12 08:56:16;;;;;;;1.80;1.80;;;;;;;8.33;100.00;99999.03;5105391;28;20609;-77
2023/12/12 08:58:44;;;;;;;2.43;2.30;;;;;;;8.40;100.00;100037.06;5095606;28;20277;-77
2023/12/12 09:01:11;;;;;;;0.80;0.80;;;;;;;8.34;100.00;100029.19;5096352;28;20723;-79
2023/12/12 09:03:38;;;;;;;2.67;1.17;;;;;;;7.20;100.00;99821.72;5078714;28;20259;-80
2023/12/12 09:06:05;;;;;;;7.90;1.27;;;;;;;8.68;100.00;100032.50;5038504;28;20282;-77
2023/12/12 09:08:32;;;;;;;1.90;1.80;;;;;;;8.45;100.00;100022.53;5077226;28;20199;-77
2023/12/12 09:10:59;;;;;;;1.00;1.00;;;;;;;8.66;100.00;100023.88;5084794;28;20253;-80
2023/12/12 09:13:26;;;;;;;1.37;1.27;;;;;;;8.64;100.00;100025.53;5075883;28;20205;-81
2023/12/12 09:15:55;;;;;;;1.87;1.77;;;;;;;8.68;100.00;100022.16;5083466;28;20251;-81
2023/12/12 09:18:21;;;;;;;3.30;2.30;;;;;;;8.63;100.00;100021.22;5079608;28;20275;-80
2023/12/12 09:20:48;;;;;;;0.80;0.80;;;;;;;8.74;100.00;100022.31;5091291;28;20209;-79
2023/12/12 09:23:17;;;;;;;5.80;1.87;;;;;;;9.02;100.00;99997.91;5044699;28;20206;-78
2023/12/12 09:25:43;;;;;;;3.20;1.77;;;;;;;9.04;100.00;100027.22;5087557;28;20222;-77
2023/12/12 09:28:10;;;;;;;3.50;1.77;;;;;;;9.32;100.00;100022.63;5098790;28;20202;-79
2023/12/12 09:30:37;;;;;;;2.23;2.13;;;;;;;9.57;100.00;100015.31;5092800;28;20206;-79
2023/12/12 09:33:05;;;;;;;1.23;1.23;;;;;;;9.48;100.00;100012.56;5099473;28;20226;-78
2023/12/12 09:35:32;;;;;;;3.83;3.63;;;;;;;9.08;100.00;99988.53;5096567;28;20213;-82
2023/12/12 09:37:58;;;;;;;2.13;1.80;;;;;;;9.69;100.00;100015.53;5084180;28;20682;-80
2023/12/12 09:40:26;;;;;;;2.47;2.37;;;;;;;9.55;100.00;99998.91;5085442;28;20213;-80
2023/12/12 09:42:53;;;;;;;0.90;0.90;;;;;;;9.96;100.00;100014.28;5056521;28;20202;-79
2023/12/12 09:45:23;;;;;;;1.73;1.73;;;;;;;9.92;100.00;99996.06;5093847;28;21030;-79
2023/12/12 09:47:51;;;;;;;0.90;0.90;;;;;;;10.02;100.00;100013.53;5093888;28;20221;-81
2023/12/12 09:50:20;;;;;;;0.80;0.80;;;;;;;9.98;100.00;100018.63;5105538;28;20256;-81
2023/12/12 09:52:51;;;;;;;10.73;1.33;;;;;;;10.02;100.00;100018.69;5103533;28;20194;-80
2023/12/12 09:55:22;;;;;;;1.83;1.73;;;;;;;10.24;100.00;100025.09;5090199;28;20255;-78
2023/12/12 09:57:49;;;;;;;0.97;0.97;;;;;;;10.05;100.00;100023.94;5104076;28;20289;-82
2023/12/12 10:00:18;;;;;;;0.80;0.80;;;;;;;9.64;100.00;100028.38;5104156;28;20210;-80
2023/12/12 10:02:45;;;;;;;2.70;2.13;;;;;;;9.61;100.00;100005.06;5103241;28;20284;-79
2023/12/12 10:05:13;;;;;;;1.07;1.07;;;;;;;9.59;100.00;99998.09;5116422;28;20208;-79
2023/12/12 10:07:43;;;;;;;2.90;2.03;;;;;;;9.60;100.00;100011.06;5096885;28;20647;-78
2023/12/12 10:10:14;;;;;;;0.90;0.90;;;;;;;9.67;100.00;99987.03;5101559;28;20202;-79
2023/12/12 10:12:42;;;;;;;1.23;1.23;;;;;;;9.85;100.00;100022.72;5096933;28;20203;-81
2023/12/12 10:15:23;;;;;;;1.00;1.00;;;;;;;9.44;100.00;99931.44;5094570;28;20266;-78
2023/12/12 10:17:50;;;;;;;0.90;0.90;;;;;;;10.03;100.00;100025.59;5109357;28;20205;-78
2023/12/12 10:20:25;;;;;;;1.17;1.17;;;;;;;10.10;100.00;100018.78;5115998;28;20259;-78
2023/12/12 10:22:58;;;;;;;1.73;0.93;;;;;;;10.15;100.00;100020.66;5113092;28;20193;-77
2023/12/12 10:25:25;;;;;;;0.97;0.97;;;;;;;9.98;100.00;99978.06;5109845;28;20222;-78
2023/12/12 10:27:53;;;;;;;1.53;1.53;;;;;;;10.17;100.00;100008.59;5111591;28;20198;-78
2023/12/12 10:30:21;;;;;;;0.70;0.70;;;;;;;9.85;100.00;100008.03;5109791;28;20263;-77
2023/12/12 10:32:50;;;;;;;0.80;0.80;;;;;;;9.83;100.00;99999.41;5095740;28;20222;-78
2023/12/12 10:35:16;;;;;;;1.00;1.00;;;;;;;9.72;100.00;99980.22;5111830;28;20198;-77
2023/12/12 10:37:43;;;;;;;1.50;1.50;;;;;;;9.93;100.00;99993.50;5104593;28;20670;-79
2023/12/12 10:40:19;;;;;;;1.50;1.40;;;;;;;9.87;100.00;100005.50;5101915;28;20707;-76
2023/12/12 10:42:46;;;;;;;0.80;0.80;;;;;;;9.76;100.00;100010.50;5101808;28;20206;-77
2023/12/12 10:45:13;;;;;;;1.43;1.33;;;;;;;9.69;100.00;99966.34;5103120;28;20218;-76
2023/12/12 10:47:45;;;;;;;1.17;1.17;;;;;;;9.71;100.00;99985.34;5102112;28;20202;-77
2023/12/12 10:50:14;;;;;;;0.93;0.93;;;;;;;9.67;100.00;99999.09;5101309;28;20299;-78
2023/12/12 10:52:43;;;;;;;1.00;1.00;;;;;;;9.77;100.00;99995.84;5102409;28;20280;-77
2023/12/12 10:55:10;;;;;;;1.00;1.00;;;;;;;9.72;100.00;99979.34;5104469;28;20198;-78
2023/12/12 10:57:42;;;;;;;3.23;1.60;;;;;;;9.70;100.00;99968.09;5100435;28;20198;-78
2023/12/12 11:00:12;;;;;;;0.87;0.87;;;;;;;10.06;100.00;99965.22;5098075;28;20258;-73
2023/12/12 11:02:40;;;;;;;1.40;1.10;;;;;;;9.85;100.00;99989.91;5093294;28;20204;-74
2023/12/12 11:05:10;;;;;;;1.30;1.30;;;;;;;9.90;100.00;99980.53;5092903;28;20257;-75
2023/12/12 11:07:37;;;;;;;1.00;1.00;;;;;;;9.86;100.00;99967.50;5092958;28;20277;-74
2023/12/12 11:10:09;;;;;;;0.93;0.93;;;;;;;9.61;100.00;99918.75;5076049;28;20186;-75
2023/12/12 11:12:40;;;;;;;5.03;1.50;;;;;;;9.74;100.00;99952.63;5093662;28;20194;-75
2023/12/12 11:15:09;;;;;;;1.40;1.40;;;;;;;9.90;100.00;99966.69;5093597;28;20202;-75
2023/12/12 11:17:37;;;;;;;2.23;2.13;;;;;;;9.91;100.00;99971.03;5097136;28;20202;-78
2023/12/12 11:20:14;;;;;;;1.70;1.60;;;;;;;9.95;100.00;99967.66;5098863;28;20224;-76
2023/12/12 11:22:42;;;;;;;0.60;0.60;;;;;;;9.96;100.00;99971.97;5099832;28;20221;-81
2023/12/12 11:25:15;;;;;;;0.80;0.80;;;;;;;9.92;100.00;99962.41;5098291;28;20226;-73
2023/12/12 11:27:47;;;;;;;1.37;0.97;;;;;;;10.06;100.00;99960.88;5093620;28;20281;-80
2023/12/12 11:30:15;;;;;;;1.20;1.20;;;;;;;10.06;100.00;99966.06;5094308;28;20221;-77
2023/12/12 11:32:43;;;;;;;1.10;1.00;;;;;;;10.12;100.00;99966.19;5093654;28;20711;-78
2023/12/12 11:35:29;;;;;;;3.00;2.80;;;;;;;10.23;100.00;99964.66;5093198;28;20241;-76
2023/12/12 11:37:56;;;;;;;1.43;1.43;;;;;;;10.19;100.00;99947.31;5092844;28;20196;-74
2023/12/12 11:40:25;;;;;;;1.93;1.83;;;;;;;10.36;100.00;99956.19;5091888;28;20186;-80
2023/12/12 11:42:53;;;;;;;1.67;1.53;;;;;;;10.36;100.00;99951.00;5106243;28;20198;-80
2023/12/12 11:45:34;;;;;;;1.40;1.13;;;;;;;10.56;100.00;99960.78;5095485;28;20233;-78
2023/12/12 11:48:02;;;;;;;1.40;1.30;;;;;;;10.52;100.00;99956.41;5094526;28;20197;-81